This is the latest recevied weather packets stored in our database for station/object DC1SK-6. If no packets are shown the sender has not sent any weather packets the latest 10 day(s).
| Time | Temp. | Humidity | Pressure | Rain* | Wind** | Luminosity | Snow |
|---|---|---|---|---|---|---|---|
| 1777626324 | 18.33° C | 47% | - | 0 mm | - | 861 W/m² | - |
| 1777625774 | 17.78° C | 51% | - | 0 mm | - | 692 W/m² | - |
| 1777625279 | 17.22° C | 54% | - | 0 mm | - | 759 W/m² | - |
| 1777624724 | 17.22° C | 54% | - | 0 mm | - | 759 W/m² | - |
| 1777624194 | 16.67° C | 55% | - | 0 mm | - | 749 W/m² | - |
| 1777623609 | 16.67° C | 55% | - | 0 mm | - | 677 W/m² | - |
| 1777623069 | 15.56° C | 53% | - | 0 mm | - | 669 W/m² | - |
| 1777622499 | 14.44° C | 58% | - | 0 mm | - | 613 W/m² | - |
| 1777621899 | 15° C | 56% | - | 0 mm | - | 584 W/m² | - |
| 1777621349 | 15° C | 57% | - | 0 mm | - | 564 W/m² | - |
| 1777620789 | 13.89° C | 59% | - | 0 mm | - | 496 W/m² | - |
| 1777620259 | 12.78° C | 60% | - | 0 mm | - | 447 W/m² | - |
| 1777619664 | 12.78° C | 61% | - | 0 mm | - | 445 W/m² | - |
| 1777619164 | 11.11° C | 65% | - | 0 mm | - | 362 W/m² | - |
| 1777618642 | 11.11° C | 66% | - | 0 mm | - | 317 W/m² | - |
| 1777618139 | 10.56° C | 66% | - | 0 mm | - | 319 W/m² | - |
| 1777617579 | 10.56° C | 66% | - | 0 mm | - | 253 W/m² | - |
| 1777617069 | 10° C | 67% | - | 0 mm | - | 215 W/m² | - |
| 1777616559 | 9.44° C | 68% | - | 0 mm | - | 204 W/m² | - |
| 1777616019 | 9.44° C | 69% | - | 0 mm | - | 195 W/m² | - |
| 1777615539 | 9.44° C | 69% | - | 0 mm | - | 159 W/m² | - |
| 1777615029 | 8.33° C | 72% | - | 0 mm | - | 150 W/m² | - |
| 1777614474 | 7.22° C | 76% | - | 0 mm | - | 127 W/m² | - |
| 1777613969 | 7.22° C | 76% | - | 0 mm | - | 111 W/m² | - |
| 1777613394 | 5.56° C | 84% | - | 0 mm | - | 99 W/m² | - |
* Rain latest hour (hover to see other rain measurements)
** Current wind speed in m/s (hover to see current wind gust speed)